createdAt,value
2023-05-25T00:00:53.408Z,82.10
2023-05-25T00:03:03.983Z,82.20
2023-05-25T00:05:09.416Z,81.90
2023-05-25T00:07:12.180Z,81.90
2023-05-25T00:09:14.937Z,81.80
2023-05-25T00:11:19.532Z,81.60
2023-05-25T00:13:22.289Z,81.40
2023-05-25T00:15:25.091Z,81.30
2023-05-25T00:17:30.084Z,81.10
2023-05-25T00:19:33.994Z,81.20
2023-05-25T00:21:38.298Z,81.40
2023-05-25T00:23:41.150Z,81.40
2023-05-25T00:25:44.065Z,81.60
2023-05-25T00:27:47.217Z,81.60
2023-05-25T00:29:50.024Z,81.90
2023-05-25T00:31:52.917Z,82.40
2023-05-25T00:33:57.021Z,82.90
2023-05-25T00:36:00.189Z,83.10
2023-05-25T00:38:03.168Z,83.20
2023-05-25T00:40:10.306Z,83.10
2023-05-25T00:42:13.460Z,83.50
2023-05-25T00:44:21.584Z,83.70
2023-05-25T00:46:24.802Z,83.60
2023-05-25T00:48:27.924Z,83.50
2023-05-25T00:50:38.857Z,83.20
2023-05-25T00:52:41.797Z,83.30
2023-05-25T00:54:49.047Z,83.40
2023-05-25T00:56:54.014Z,83.50
2023-05-25T00:58:59.077Z,83.20
2023-05-25T01:01:06.295Z,83.10
2023-05-25T01:03:13.426Z,84.80
2023-05-25T01:05:18.401Z,85.20
2023-05-25T01:07:25.257Z,85.40
2023-05-25T01:09:30.407Z,85.40
2023-05-25T01:11:35.988Z,85.30
2023-05-25T01:13:39.766Z,85.00
2023-05-25T01:15:42.858Z,84.50
2023-05-25T01:17:46.925Z,84.80
2023-05-25T01:20:01.538Z,84.50
2023-05-25T01:22:18.473Z,84.90
2023-05-25T01:24:27.879Z,83.90
2023-05-25T01:26:36.068Z,83.70
2023-05-25T01:28:49.955Z,83.70
2023-05-25T01:30:53.249Z,83.70
2023-05-25T01:32:56.824Z,83.40
2023-05-25T01:35:01.404Z,83.10
2023-05-25T01:37:04.375Z,83.20
2023-05-25T01:39:10.964Z,83.10
2023-05-25T01:41:13.783Z,82.90
2023-05-25T01:43:17.521Z,82.90
2023-05-25T01:45:20.970Z,82.80
2023-05-25T01:47:33.786Z,83.10
2023-05-25T01:49:44.861Z,83.50
2023-05-25T01:51:55.849Z,83.50
2023-05-25T01:54:04.145Z,83.40
2023-05-25T01:56:11.587Z,83.30
2023-05-25T01:58:16.368Z,83.30
2023-05-25T02:00:21.498Z,83.10
2023-05-25T02:02:25.045Z,83.00
2023-05-25T02:04:28.210Z,83.00
2023-05-25T02:06:31.850Z,83.10
2023-05-25T02:08:34.634Z,83.20
2023-05-25T02:10:37.393Z,83.20
2023-05-25T02:12:41.605Z,83.30
2023-05-25T02:14:45.968Z,83.30
2023-05-25T02:16:48.745Z,83.40
2023-05-25T02:18:51.883Z,83.50
2023-05-25T02:20:54.674Z,83.60
2023-05-25T02:22:57.443Z,84.50
2023-05-25T02:25:00.255Z,83.80
2023-05-25T02:27:03.466Z,83.80
2023-05-25T02:29:07.616Z,83.70
2023-05-25T02:31:10.547Z,83.70
2023-05-25T02:33:13.850Z,84.00
2023-05-25T02:35:16.724Z,84.50
2023-05-25T02:37:19.529Z,84.60
2023-05-25T02:39:22.315Z,86.30
2023-05-25T02:41:26.362Z,86.10
2023-05-25T02:43:29.126Z,86.20
2023-05-25T02:45:33.210Z,86.40
2023-05-25T02:47:36.125Z,86.40
2023-05-25T02:49:38.885Z,87.90
2023-05-25T02:51:41.762Z,89.10
2023-05-25T02:53:44.554Z,89.80
2023-05-25T02:55:47.323Z,90.20
2023-05-25T02:57:50.141Z,90.50
2023-05-25T02:59:53.167Z,90.50
2023-05-25T03:01:57.554Z,90.40
2023-05-25T03:04:00.484Z,90.40
2023-05-25T03:06:04.131Z,90.20
2023-05-25T03:08:07.173Z,90.20
2023-05-25T03:10:10.896Z,90.10
2023-05-25T03:12:13.699Z,90.10
2023-05-25T03:14:16.476Z,90.20
2023-05-25T03:16:19.268Z,90.20
2023-05-25T03:18:23.375Z,90.30
2023-05-25T03:20:26.534Z,90.30
2023-05-25T03:22:29.315Z,90.40
2023-05-25T03:24:32.078Z,90.40
2023-05-25T03:26:35.001Z,90.50
2023-05-25T03:28:38.926Z,90.50
2023-05-25T03:30:41.767Z,90.40
2023-05-25T03:32:44.729Z,90.40
2023-05-25T03:34:48.850Z,89.30
2023-05-25T03:36:53.469Z,89.50
2023-05-25T03:38:56.248Z,89.70
2023-05-25T03:40:59.881Z,89.50
2023-05-25T03:43:02.755Z,89.20
2023-05-25T03:45:06.586Z,89.20
2023-05-25T03:47:09.569Z,88.80
2023-05-25T03:49:14.078Z,88.50
2023-05-25T03:51:18.444Z,88.10
2023-05-25T03:53:21.234Z,88.10
2023-05-25T03:55:23.981Z,88.00
2023-05-25T03:57:26.726Z,87.90
2023-05-25T03:59:29.470Z,87.70
2023-05-25T04:01:32.298Z,87.70
2023-05-25T04:03:35.606Z,87.70
2023-05-25T04:05:38.698Z,87.70
2023-05-25T04:07:43.032Z,87.70
2023-05-25T04:09:45.884Z,87.60
2023-05-25T04:11:48.712Z,87.50
2023-05-25T04:13:51.518Z,88.20
2023-05-25T04:15:54.346Z,87.50
2023-05-25T04:17:59.500Z,88.10
2023-05-25T04:20:02.385Z,87.70
2023-05-25T04:22:05.356Z,87.80
2023-05-25T04:24:09.648Z,87.80
2023-05-25T04:26:12.489Z,87.60
2023-05-25T04:28:15.312Z,87.60
2023-05-25T04:30:18.232Z,87.80
2023-05-25T04:32:21.574Z,88.00
2023-05-25T04:34:24.409Z,87.80
2023-05-25T04:36:27.218Z,88.00
2023-05-25T04:38:30.847Z,88.10
2023-05-25T04:40:35.472Z,88.00
2023-05-25T04:42:39.753Z,87.90
2023-05-25T04:44:42.523Z,88.00
2023-05-25T04:46:45.311Z,88.20
2023-05-25T04:48:48.131Z,88.00
2023-05-25T04:50:51.799Z,88.00
2023-05-25T04:52:55.051Z,88.30
2023-05-25T04:54:57.841Z,88.60
2023-05-25T04:57:02.994Z,88.70
2023-05-25T04:59:06.347Z,88.70
2023-05-25T05:01:09.193Z,88.70
2023-05-25T05:03:12.093Z,88.90
2023-05-25T05:05:14.912Z,88.80
2023-05-25T05:07:17.656Z,88.60
2023-05-25T05:09:20.507Z,88.70
2023-05-25T05:11:23.636Z,88.80
2023-05-25T05:13:27.747Z,89.00
2023-05-25T05:15:30.879Z,89.20
2023-05-25T05:17:34.123Z,89.30
2023-05-25T05:19:37.097Z,89.10
2023-05-25T05:21:39.888Z,89.80
2023-05-25T05:23:44.107Z,89.20
2023-05-25T05:25:47.322Z,89.20
2023-05-25T05:27:50.221Z,89.10
2023-05-25T05:29:54.365Z,89.10
2023-05-25T05:31:57.313Z,89.00
2023-05-25T05:34:00.448Z,89.30
2023-05-25T05:36:04.731Z,89.70
2023-05-25T05:38:07.566Z,90.00
2023-05-25T05:40:10.832Z,89.90
2023-05-25T05:42:13.616Z,89.70
2023-05-25T05:44:16.426Z,89.60
2023-05-25T05:46:20.635Z,89.40
2023-05-25T05:48:23.450Z,88.80
2023-05-25T05:50:26.464Z,88.50
2023-05-25T05:52:29.585Z,89.40
2023-05-25T05:54:32.373Z,89.80
2023-05-25T05:56:35.165Z,89.80
2023-05-25T05:58:37.960Z,89.70
2023-05-25T06:00:40.826Z,89.80
2023-05-25T06:02:45.065Z,89.20
2023-05-25T06:04:48.038Z,88.80
2023-05-25T06:06:51.016Z,88.00
2023-05-25T06:08:53.834Z,87.90
2023-05-25T06:10:57.070Z,88.30
2023-05-25T06:12:59.840Z,89.40
2023-05-25T06:15:02.707Z,89.40
2023-05-25T06:17:05.829Z,89.90
2023-05-25T06:19:09.961Z,90.00
2023-05-25T06:21:13.111Z,90.00
2023-05-25T06:23:17.808Z,89.90
2023-05-25T06:25:20.599Z,90.20
2023-05-25T06:27:24.249Z,90.60
2023-05-25T06:29:27.010Z,90.60
2023-05-25T06:31:29.840Z,90.60
2023-05-25T06:33:32.789Z,91.10
2023-05-25T06:35:37.008Z,91.00
2023-05-25T06:37:39.944Z,90.60
2023-05-25T06:39:43.195Z,91.40
2023-05-25T06:41:46.008Z,91.50
2023-05-25T06:43:49.081Z,90.90
2023-05-25T06:45:51.932Z,90.80
2023-05-25T06:47:54.760Z,91.00
2023-05-25T06:49:58.457Z,91.20
2023-05-25T06:52:02.645Z,91.30
2023-05-25T06:54:05.538Z,91.30
2023-05-25T06:56:08.391Z,91.30
2023-05-25T06:58:11.688Z,91.50
2023-05-25T07:00:16.485Z,92.10
2023-05-25T07:02:20.879Z,91.60
2023-05-25T07:04:23.676Z,91.80
2023-05-25T07:06:26.831Z,92.10
2023-05-25T07:08:31.486Z,91.50
2023-05-25T07:10:35.550Z,92.30
2023-05-25T07:12:38.411Z,91.50
2023-05-25T07:14:41.228Z,91.60
2023-05-25T07:16:45.084Z,91.70
2023-05-25T07:18:47.986Z,91.60
2023-05-25T07:20:51.520Z,91.40
2023-05-25T07:22:54.382Z,90.70
2023-05-25T07:24:58.572Z,91.00
2023-05-25T07:27:01.970Z,91.10
2023-05-25T07:29:04.731Z,90.50
2023-05-25T07:31:07.543Z,90.30
2023-05-25T07:33:10.431Z,90.90
2023-05-25T07:35:13.227Z,90.60
2023-05-25T07:37:16.017Z,90.60
2023-05-25T07:39:18.799Z,90.40
2023-05-25T07:41:22.895Z,89.50
2023-05-25T07:43:25.662Z,88.40
2023-05-25T07:45:28.451Z,86.70
2023-05-25T07:47:31.412Z,86.80
2023-05-25T07:49:34.256Z,87.20
2023-05-25T07:51:37.608Z,87.50
2023-05-25T07:53:42.530Z,87.50
2023-05-25T07:55:45.644Z,87.90
2023-05-25T07:57:49.898Z,87.30
2023-05-25T07:59:52.749Z,86.60
2023-05-25T08:01:55.537Z,87.30
2023-05-25T08:03:58.460Z,87.20
2023-05-25T08:06:01.410Z,84.20
2023-05-25T08:08:04.173Z,85.90
2023-05-25T08:10:08.000Z,85.70
2023-05-25T08:12:26.994Z,85.70
2023-05-25T08:14:34.869Z,85.00
2023-05-25T08:16:37.804Z,86.00
2023-05-25T08:18:40.947Z,87.30
2023-05-25T08:20:43.812Z,87.10
2023-05-25T08:22:46.641Z,85.80
2023-05-25T08:24:49.489Z,86.00
2023-05-25T08:26:54.445Z,86.30
2023-05-25T08:29:00.510Z,85.30
2023-05-25T08:31:05.268Z,85.60
2023-05-25T08:33:08.613Z,86.30
2023-05-25T08:35:13.950Z,86.50
2023-05-25T08:37:17.816Z,84.30
2023-05-25T08:39:20.836Z,84.90
2023-05-25T08:41:23.663Z,83.50
2023-05-25T08:43:26.471Z,82.50
2023-05-25T08:45:35.551Z,83.80
2023-05-25T08:47:44.786Z,83.50
2023-05-25T08:49:50.869Z,83.10
2023-05-25T08:51:55.468Z,83.50
2023-05-25T08:54:00.642Z,83.10
2023-05-25T08:56:07.315Z,83.80
2023-05-25T08:58:14.825Z,82.60
2023-05-25T09:00:21.801Z,83.30
2023-05-25T09:02:31.523Z,83.30
2023-05-25T09:04:35.926Z,81.20
2023-05-25T09:06:38.774Z,81.30
2023-05-25T09:08:42.000Z,82.10
2023-05-25T09:10:44.808Z,83.10
2023-05-25T09:12:48.448Z,81.40
2023-05-25T09:14:51.492Z,78.60
2023-05-25T09:16:54.778Z,79.00
2023-05-25T09:18:57.575Z,77.50
2023-05-25T09:21:02.816Z,76.60
2023-05-25T09:23:07.203Z,76.60
2023-05-25T09:25:12.460Z,77.60
2023-05-25T09:27:19.521Z,79.00
2023-05-25T09:29:22.360Z,80.60
2023-05-25T09:31:25.637Z,76.90
2023-05-25T09:33:28.535Z,79.70
2023-05-25T09:35:31.420Z,80.10
2023-05-25T09:37:36.164Z,74.80
2023-05-25T09:39:39.251Z,74.30
2023-05-25T09:41:42.585Z,75.60
2023-05-25T09:43:57.680Z,74.30
2023-05-25T09:46:09.405Z,75.80
2023-05-25T09:48:12.721Z,75.90
2023-05-25T09:50:18.033Z,74.80
2023-05-25T09:52:21.715Z,76.10
2023-05-25T09:54:26.790Z,77.40
2023-05-25T09:56:33.811Z,77.00
2023-05-25T09:58:37.291Z,77.00
2023-05-25T10:00:40.037Z,76.80
2023-05-25T10:02:43.084Z,76.40
2023-05-25T10:04:46.394Z,75.30
2023-05-25T10:06:50.893Z,75.00
2023-05-25T10:08:56.453Z,74.40
2023-05-25T10:11:01.138Z,75.00
2023-05-25T10:13:05.930Z,76.30
2023-05-25T10:15:10.470Z,75.10
2023-05-25T10:17:19.698Z,74.50
2023-05-25T10:19:29.508Z,74.30
2023-05-25T10:21:34.218Z,75.00
2023-05-25T10:23:41.893Z,74.40
2023-05-25T10:25:46.397Z,74.10
2023-05-25T10:27:59.655Z,73.40
2023-05-25T10:30:04.605Z,74.30
2023-05-25T10:32:08.617Z,75.70
2023-05-25T10:34:11.461Z,75.70
2023-05-25T10:36:14.908Z,74.10
2023-05-25T10:38:19.448Z,75.30
2023-05-25T10:40:23.048Z,73.90
2023-05-25T10:42:27.379Z,75.00
2023-05-25T10:44:32.565Z,73.30
2023-05-25T10:46:36.279Z,73.70
2023-05-25T10:48:40.148Z,74.50
2023-05-25T10:50:43.026Z,73.30
2023-05-25T10:52:46.103Z,73.40
2023-05-25T10:54:49.972Z,73.20
2023-05-25T10:57:12.755Z,73.90
2023-05-25T10:59:15.790Z,71.80
2023-05-25T11:01:19.960Z,73.30
2023-05-25T11:03:22.915Z,74.20
2023-05-25T11:05:39.645Z,73.20
2023-05-25T11:07:53.812Z,74.20
2023-05-25T11:09:59.381Z,75.40
2023-05-25T11:12:04.027Z,73.90
2023-05-25T11:14:21.919Z,73.20
2023-05-25T11:16:36.159Z,72.00
2023-05-25T11:18:39.475Z,70.80
2023-05-25T11:20:42.421Z,72.00
2023-05-25T11:22:45.280Z,71.20
2023-05-25T11:24:48.393Z,71.60
2023-05-25T11:26:56.560Z,72.40
2023-05-25T11:29:00.413Z,72.80
2023-05-25T11:31:06.625Z,71.70
2023-05-25T11:33:11.142Z,73.50
2023-05-25T11:35:14.709Z,72.70
2023-05-25T11:37:21.261Z,71.50
2023-05-25T11:39:24.196Z,72.10
2023-05-25T11:41:26.990Z,70.40
2023-05-25T11:43:30.008Z,71.50
2023-05-25T11:45:34.414Z,73.20
2023-05-25T11:47:38.178Z,71.50
2023-05-25T11:49:46.094Z,70.40
2023-05-25T11:51:48.949Z,70.30
2023-05-25T11:53:51.754Z,69.90
2023-05-25T11:56:03.558Z,69.70
2023-05-25T11:58:10.572Z,70.50
2023-05-25T12:00:14.546Z,71.20
2023-05-25T12:02:17.501Z,70.60
2023-05-25T12:04:23.202Z,70.00
2023-05-25T12:06:30.082Z,70.60
2023-05-25T12:08:33.488Z,68.60
2023-05-25T12:10:50.852Z,70.70
2023-05-25T12:12:58.126Z,69.00
2023-05-25T12:15:00.945Z,69.40
2023-05-25T12:17:03.908Z,68.60
2023-05-25T12:19:07.512Z,68.80
2023-05-25T12:21:10.612Z,69.20
2023-05-25T12:23:15.022Z,68.90
2023-05-25T12:25:21.259Z,67.10
2023-05-25T12:27:24.036Z,67.70
2023-05-25T12:29:26.922Z,68.00
2023-05-25T12:31:31.511Z,67.10
2023-05-25T12:33:34.349Z,68.30
2023-05-25T12:35:46.766Z,68.50
2023-05-25T12:37:49.631Z,67.50
2023-05-25T12:39:53.734Z,67.30
2023-05-25T12:41:57.513Z,67.80
2023-05-25T12:44:00.730Z,68.50
2023-05-25T12:46:03.885Z,68.00
2023-05-25T12:48:07.440Z,68.10
2023-05-25T12:50:15.317Z,67.40
2023-05-25T12:52:33.471Z,67.50
2023-05-25T12:54:38.143Z,66.40
2023-05-25T12:56:56.704Z,67.30
2023-05-25T12:59:17.272Z,67.70
2023-05-25T13:01:20.172Z,67.70
2023-05-25T13:03:23.726Z,68.50
2023-05-25T13:05:28.120Z,68.10
2023-05-25T13:07:31.219Z,67.70
2023-05-25T13:09:34.065Z,67.60
2023-05-25T13:11:36.891Z,67.10
2023-05-25T13:13:40.970Z,66.80
2023-05-25T13:15:44.368Z,66.30
2023-05-25T13:17:48.040Z,67.50
2023-05-25T13:19:50.820Z,67.70
2023-05-25T13:21:55.456Z,67.70
2023-05-25T13:23:58.230Z,66.20
2023-05-25T13:26:00.981Z,65.80
2023-05-25T13:28:05.676Z,66.00
2023-05-25T13:30:11.832Z,66.60
2023-05-25T13:32:14.877Z,65.30
2023-05-25T13:34:17.788Z,66.60
2023-05-25T13:36:20.896Z,65.70
2023-05-25T13:38:23.653Z,66.60
2023-05-25T13:40:26.437Z,65.90
2023-05-25T13:42:29.210Z,66.30
2023-05-25T13:44:33.956Z,65.50
2023-05-25T13:46:38.482Z,64.80
2023-05-25T13:48:47.202Z,65.50
2023-05-25T13:50:49.958Z,65.80
2023-05-25T13:52:52.960Z,63.90
2023-05-25T13:54:55.704Z,64.90
2023-05-25T13:56:58.452Z,64.90
2023-05-25T13:59:01.207Z,65.30
2023-05-25T14:01:04.106Z,64.80
2023-05-25T14:03:08.399Z,64.00
2023-05-25T14:05:11.226Z,64.60
2023-05-25T14:07:14.402Z,65.50
2023-05-25T14:09:17.201Z,64.30
2023-05-25T14:11:26.776Z,63.10
2023-05-25T14:13:31.139Z,64.10
2023-05-25T14:15:33.979Z,64.60
2023-05-25T14:17:37.040Z,62.80
2023-05-25T14:19:41.196Z,63.30
2023-05-25T14:21:43.972Z,63.40
2023-05-25T14:23:46.729Z,65.10
2023-05-25T14:25:50.125Z,62.50
2023-05-25T14:27:52.921Z,61.00
2023-05-25T14:29:55.832Z,60.00
2023-05-25T14:31:58.744Z,54.50
2023-05-25T14:34:01.644Z,50.90
2023-05-25T14:36:06.882Z,48.80
2023-05-25T14:38:09.727Z,48.60
2023-05-25T14:40:13.536Z,45.20
2023-05-25T14:42:16.677Z,42.50
2023-05-25T14:44:19.442Z,43.80
2023-05-25T14:46:22.247Z,41.30
2023-05-25T14:48:25.948Z,43.50
2023-05-25T14:50:30.345Z,39.50
2023-05-25T14:52:34.676Z,39.50
2023-05-25T14:54:37.430Z,39.50
2023-05-25T14:56:40.227Z,37.50
2023-05-25T14:58:42.981Z,37.00
2023-05-25T15:00:45.765Z,38.00
2023-05-25T15:02:48.672Z,38.30
2023-05-25T15:04:51.512Z,36.80
2023-05-25T15:06:54.237Z,34.10
2023-05-25T15:08:58.339Z,33.20
2023-05-25T15:11:01.190Z,35.60
2023-05-25T15:13:03.956Z,36.40
2023-05-25T15:15:09.180Z,34.40
2023-05-25T15:17:12.003Z,34.60
2023-05-25T15:19:17.379Z,33.00
2023-05-25T15:21:20.521Z,33.10
2023-05-25T15:23:23.266Z,35.70
2023-05-25T15:27:34.792Z,33.50
2023-05-25T15:29:37.601Z,35.00
2023-05-25T15:31:40.440Z,33.50
2023-05-25T15:33:56.198Z,30.90
2023-05-25T15:36:00.969Z,32.40
2023-05-25T15:38:03.751Z,35.10
2023-05-25T15:40:07.665Z,31.80
2023-05-25T15:42:11.779Z,33.20
2023-05-25T15:44:14.604Z,34.20
2023-05-25T15:46:17.503Z,31.60
2023-05-25T15:48:20.278Z,31.90
2023-05-25T15:50:23.680Z,30.20
2023-05-25T15:52:26.558Z,30.80
2023-05-25T15:54:29.569Z,31.50
2023-05-25T15:56:33.058Z,31.60
2023-05-25T15:58:37.103Z,32.90
2023-05-25T16:00:39.905Z,30.00
2023-05-25T16:02:42.684Z,31.30
2023-05-25T16:04:45.548Z,30.00
2023-05-25T16:06:48.711Z,30.30
2023-05-25T16:08:51.540Z,29.30
2023-05-25T16:10:54.294Z,30.90
2023-05-25T16:12:57.094Z,31.40
2023-05-25T16:15:01.183Z,32.30
2023-05-25T16:17:03.922Z,32.40
2023-05-25T16:19:07.548Z,31.30
2023-05-25T16:21:10.355Z,34.20
2023-05-25T16:23:14.731Z,35.40
2023-05-25T16:25:17.488Z,34.00
2023-05-25T16:27:20.338Z,34.20
2023-05-25T16:29:23.214Z,31.40
2023-05-25T16:31:27.966Z,32.20
2023-05-25T16:33:30.781Z,30.00
2023-05-25T16:35:33.568Z,30.80
2023-05-25T16:37:36.314Z,30.80
2023-05-25T16:39:39.097Z,30.60
2023-05-25T16:41:42.038Z,29.80
2023-05-25T16:43:44.818Z,32.50
2023-05-25T16:45:47.894Z,32.70
2023-05-25T16:47:52.266Z,30.90
2023-05-25T16:49:55.109Z,32.10
2023-05-25T16:51:57.965Z,30.30
2023-05-25T16:54:00.764Z,33.00
2023-05-25T16:56:03.535Z,32.70
2023-05-25T16:58:06.400Z,31.60
2023-05-25T17:00:10.408Z,31.80
2023-05-25T17:02:13.185Z,32.90
2023-05-25T17:04:17.349Z,33.70
2023-05-25T17:06:20.145Z,33.60
2023-05-25T17:08:22.936Z,32.70
2023-05-25T17:10:25.928Z,32.70
2023-05-25T17:12:28.815Z,33.70
2023-05-25T17:14:31.749Z,34.30
2023-05-25T17:16:34.551Z,35.30
2023-05-25T17:18:37.429Z,37.00
2023-05-25T17:20:41.651Z,38.50
2023-05-25T17:22:44.571Z,41.00
2023-05-25T17:24:47.328Z,41.40
2023-05-25T17:26:51.484Z,39.60
2023-05-25T17:28:54.916Z,42.00
2023-05-25T17:30:58.821Z,43.10
2023-05-25T17:33:01.904Z,43.50
2023-05-25T17:35:05.025Z,44.20
2023-05-25T17:37:09.171Z,43.40
2023-05-25T17:39:12.021Z,40.60
2023-05-25T17:41:14.767Z,40.50
2023-05-25T17:43:17.790Z,40.00
2023-05-25T17:45:20.788Z,39.80
2023-05-25T17:47:23.921Z,39.80
2023-05-25T17:49:26.721Z,39.30
2023-05-25T17:51:29.763Z,38.80
2023-05-25T17:53:33.875Z,40.50
2023-05-25T17:55:36.796Z,40.30
2023-05-25T17:57:39.611Z,39.60
2023-05-25T17:59:44.841Z,40.00
2023-05-25T18:01:48.544Z,41.50
2023-05-25T18:03:52.336Z,42.60
2023-05-25T18:05:55.240Z,43.50
2023-05-25T18:07:58.047Z,43.90
2023-05-25T18:10:02.198Z,44.60
2023-05-25T18:12:05.246Z,44.60
2023-05-25T18:14:07.992Z,45.70
2023-05-25T18:16:11.009Z,46.30
2023-05-25T18:18:15.656Z,46.90
2023-05-25T18:20:18.553Z,47.30
2023-05-25T18:22:21.389Z,48.30
2023-05-25T18:24:24.178Z,49.60
2023-05-25T18:26:28.292Z,49.70
2023-05-25T18:28:31.451Z,50.60
2023-05-25T18:30:34.599Z,51.30
2023-05-25T18:32:37.396Z,51.90
2023-05-25T18:34:40.223Z,52.60
2023-05-25T18:36:42.990Z,53.70
2023-05-25T18:38:45.799Z,54.40
2023-05-25T18:40:48.553Z,54.90
2023-05-25T18:42:52.659Z,55.00
2023-05-25T18:44:55.401Z,55.50
2023-05-25T18:46:58.254Z,55.80
2023-05-25T18:49:01.119Z,55.80
2023-05-25T18:51:03.986Z,56.20
2023-05-25T18:53:09.733Z,56.80
2023-05-25T18:55:12.527Z,57.10
2023-05-25T18:57:15.475Z,57.70
2023-05-25T18:59:19.925Z,58.10
2023-05-25T19:01:22.736Z,58.10
2023-05-25T19:03:25.981Z,58.30
2023-05-25T19:05:28.824Z,58.70
2023-05-25T19:07:31.577Z,58.70
2023-05-25T19:09:34.541Z,58.80
2023-05-25T19:11:37.305Z,59.00
2023-05-25T19:13:40.137Z,59.90
2023-05-25T19:15:44.707Z,59.50
2023-05-25T19:17:47.796Z,61.40
2023-05-25T19:19:50.655Z,62.40
2023-05-25T19:21:54.151Z,62.90
2023-05-25T19:23:57.916Z,62.90
2023-05-25T19:26:00.689Z,64.20
2023-05-25T19:28:03.481Z,64.10
2023-05-25T19:30:07.231Z,64.60
2023-05-25T19:32:11.365Z,64.30
2023-05-25T19:34:14.124Z,63.10
2023-05-25T19:36:16.911Z,62.80
2023-05-25T19:38:19.734Z,63.00
2023-05-25T19:40:23.910Z,63.20
2023-05-25T19:42:26.694Z,64.30
2023-05-25T19:44:29.483Z,64.50
2023-05-25T19:46:32.348Z,64.80
2023-05-25T19:48:36.488Z,66.40
2023-05-25T19:50:39.273Z,66.90
2023-05-25T19:52:42.073Z,67.20
2023-05-25T19:54:44.955Z,67.30
2023-05-25T19:56:47.754Z,67.90
2023-05-25T19:58:50.531Z,66.90
2023-05-25T20:00:53.688Z,66.20
2023-05-25T20:02:56.693Z,65.10
2023-05-25T20:05:00.877Z,65.40
2023-05-25T20:07:03.698Z,65.70
2023-05-25T20:09:07.138Z,67.20
2023-05-25T20:11:10.263Z,66.90
2023-05-25T20:13:13.049Z,66.30
2023-05-25T20:15:16.036Z,66.50
2023-05-25T20:17:18.780Z,67.30
2023-05-25T20:19:23.713Z,67.20
2023-05-25T20:21:28.797Z,67.70
2023-05-25T20:23:32.078Z,68.10
2023-05-25T20:25:34.844Z,68.90
2023-05-25T20:27:37.575Z,68.90
2023-05-25T20:29:40.417Z,69.40
2023-05-25T20:31:43.195Z,68.80
2023-05-25T20:33:46.061Z,68.60
2023-05-25T20:35:48.866Z,67.70
2023-05-25T20:37:53.039Z,68.60
2023-05-25T20:39:55.793Z,69.10
2023-05-25T20:41:58.592Z,69.70
2023-05-25T20:44:02.312Z,69.30
2023-05-25T20:46:05.268Z,69.30
2023-05-25T20:48:08.071Z,68.90
2023-05-25T20:50:11.477Z,68.60
2023-05-25T20:52:14.251Z,68.30
2023-05-25T20:54:18.490Z,68.20
2023-05-25T20:56:22.130Z,67.90
2023-05-25T20:58:25.498Z,67.80
2023-05-25T21:00:28.404Z,67.50
2023-05-25T21:02:31.311Z,67.70
2023-05-25T21:04:34.128Z,67.70
2023-05-25T21:06:37.375Z,67.80
2023-05-25T21:08:40.126Z,67.70
2023-05-25T21:10:44.251Z,67.60
2023-05-25T21:12:47.085Z,67.60
2023-05-25T21:14:49.935Z,67.60
2023-05-25T21:16:52.754Z,67.80
2023-05-25T21:18:55.567Z,67.90
2023-05-25T21:20:58.333Z,68.00
2023-05-25T21:23:02.465Z,68.00
2023-05-25T21:25:06.450Z,68.20
2023-05-25T21:27:10.694Z,68.50
2023-05-25T21:29:13.581Z,68.50
2023-05-25T21:31:16.412Z,68.60
2023-05-25T21:33:19.324Z,68.60
2023-05-25T21:35:22.225Z,68.70
2023-05-25T21:37:25.899Z,68.80
2023-05-25T21:39:28.668Z,69.00
2023-05-25T21:41:31.466Z,69.00
2023-05-25T21:43:35.624Z,69.20
2023-05-25T21:45:38.418Z,69.70
2023-05-25T21:47:41.255Z,69.90
2023-05-25T21:49:44.002Z,70.30
2023-05-25T21:51:46.821Z,70.20
2023-05-25T21:53:49.668Z,70.30
2023-05-25T21:55:52.920Z,69.90
2023-05-25T21:57:55.834Z,70.00
2023-05-25T21:59:59.951Z,69.80
2023-05-25T22:02:02.901Z,69.90
2023-05-25T22:04:05.911Z,69.90
2023-05-25T22:06:08.796Z,70.00
2023-05-25T22:08:11.549Z,70.00
2023-05-25T22:10:14.379Z,70.10
2023-05-25T22:12:17.159Z,70.10
2023-05-25T22:14:19.914Z,70.10
2023-05-25T22:16:24.034Z,70.20
2023-05-25T22:18:26.815Z,70.30
2023-05-25T22:20:29.704Z,70.50
2023-05-25T22:22:32.489Z,70.60
2023-05-25T22:24:35.277Z,70.90
2023-05-25T22:26:38.007Z,70.90
2023-05-25T22:28:40.813Z,71.20
2023-05-25T22:30:43.607Z,71.60
2023-05-25T22:32:47.867Z,71.90
2023-05-25T22:34:50.640Z,72.60
2023-05-25T22:36:53.531Z,73.00
2023-05-25T22:38:56.313Z,72.80
2023-05-25T22:40:59.063Z,72.90
2023-05-25T22:43:01.819Z,73.00
2023-05-25T22:45:05.126Z,72.90
2023-05-25T22:47:08.032Z,72.80
2023-05-25T22:49:12.126Z,72.70
2023-05-25T22:51:14.962Z,72.60
2023-05-25T22:53:17.875Z,72.60
2023-05-25T22:55:21.575Z,72.50
2023-05-25T22:57:24.312Z,72.50
2023-05-25T22:59:27.062Z,72.90
2023-05-25T23:01:29.872Z,73.80
2023-05-25T23:03:32.809Z,74.30
2023-05-25T23:05:36.970Z,74.40
2023-05-25T23:07:39.731Z,74.10
2023-05-25T23:09:42.632Z,74.40
2023-05-25T23:11:45.481Z,74.60
2023-05-25T23:13:48.228Z,75.10
2023-05-25T23:15:51.185Z,75.10
2023-05-25T23:17:54.190Z,75.40
2023-05-25T23:19:57.100Z,76.20
2023-05-25T23:22:01.274Z,77.50
2023-05-25T23:24:04.221Z,77.30
2023-05-25T23:26:07.082Z,77.50
2023-05-25T23:28:09.924Z,77.50
2023-05-25T23:30:13.094Z,77.20
2023-05-25T23:32:16.043Z,77.20
2023-05-25T23:34:18.801Z,77.40
2023-05-25T23:36:21.797Z,77.90
2023-05-25T23:38:25.977Z,78.20
2023-05-25T23:40:29.066Z,77.90
2023-05-25T23:42:39.112Z,78.10
2023-05-25T23:44:42.038Z,78.20
2023-05-25T23:46:44.858Z,77.80
2023-05-25T23:48:47.609Z,77.70
2023-05-25T23:50:50.368Z,77.90
2023-05-25T23:52:53.101Z,77.80
2023-05-25T23:54:57.215Z,78.10
2023-05-25T23:56:59.930Z,78.00
2023-05-25T23:59:02.665Z,79.50
